createdAt,value
2022-10-13T00:02:24.008Z,9.90
2022-10-13T00:04:53.824Z,11.27
2022-10-13T00:07:25.352Z,10.63
2022-10-13T00:09:55.127Z,10.20
2022-10-13T00:12:24.888Z,10.35
2022-10-13T00:14:54.933Z,11.33
2022-10-13T00:17:24.841Z,10.37
2022-10-13T00:19:54.601Z,10.80
2022-10-13T00:22:24.501Z,10.55
2022-10-13T00:24:54.878Z,10.40
2022-10-13T00:27:25.209Z,10.80
2022-10-13T00:29:54.650Z,10.95
2022-10-13T00:32:24.649Z,11.45
2022-10-13T00:34:54.488Z,11.60
2022-10-13T00:37:24.708Z,11.63
2022-10-13T00:39:54.460Z,10.77
2022-10-13T00:42:27.198Z,11.95
2022-10-13T00:45:20.923Z,10.80
2022-10-13T00:47:53.704Z,11.77
2022-10-13T00:50:26.485Z,11.38
2022-10-13T00:52:58.153Z,10.73
2022-10-13T00:55:31.236Z,11.57
2022-10-13T00:58:05.388Z,11.27
2022-10-13T01:00:36.482Z,11.22
2022-10-13T01:03:06.370Z,11.73
2022-10-13T01:05:37.247Z,10.50
2022-10-13T01:08:07.937Z,10.83
2022-10-13T01:11:00.153Z,11.63
2022-10-13T01:13:52.472Z,11.07
2022-10-13T01:16:38.920Z,10.80
2022-10-13T01:19:43.404Z,11.80
2022-10-13T01:22:30.618Z,11.00
2022-10-13T01:25:06.107Z,11.57
2022-10-13T01:27:55.267Z,10.77
2022-10-13T01:30:24.815Z,12.28
2022-10-13T01:33:00.302Z,11.50
2022-10-13T01:35:36.108Z,12.10
2022-10-13T01:44:27.761Z,11.43
2022-10-13T01:46:58.050Z,11.60
2022-10-13T01:49:31.139Z,11.45
2022-10-13T01:52:04.002Z,11.30
2022-10-13T01:54:34.479Z,10.80
2022-10-13T01:57:04.310Z,11.37
2022-10-13T01:59:36.769Z,11.93
2022-10-13T02:02:16.066Z,11.17
2022-10-13T02:04:52.436Z,11.60
2022-10-13T02:07:30.491Z,11.57
2022-10-13T02:10:08.694Z,11.10
2022-10-13T02:12:53.269Z,11.90
2022-10-13T02:15:28.371Z,11.30
2022-10-13T02:18:01.802Z,11.20
2022-10-13T02:20:32.869Z,11.07
2022-10-13T02:23:06.090Z,12.03
2022-10-13T02:25:37.713Z,12.30
2022-10-13T02:28:10.130Z,11.80
2022-10-13T02:30:42.401Z,11.35
2022-10-13T02:33:13.598Z,11.37
2022-10-13T02:35:44.398Z,11.75
2022-10-13T02:38:15.245Z,11.58
2022-10-13T02:40:45.135Z,11.97
2022-10-13T02:43:14.899Z,12.07
2022-10-13T02:45:44.916Z,11.43
2022-10-13T02:48:14.705Z,12.05
2022-10-13T02:50:44.486Z,11.27
2022-10-13T02:53:14.345Z,12.03
2022-10-13T02:55:44.089Z,12.10
2022-10-13T02:58:13.541Z,11.60
2022-10-13T03:00:43.113Z,11.55
2022-10-13T03:03:13.571Z,11.43
2022-10-13T03:05:44.854Z,11.13
2022-10-13T03:08:15.305Z,11.15
2022-10-13T03:10:45.628Z,11.45
2022-10-13T03:13:15.362Z,12.00
2022-10-13T03:15:45.132Z,11.30
2022-10-13T03:18:15.985Z,11.88
2022-10-13T03:20:45.775Z,11.00
2022-10-13T03:23:15.678Z,11.23
2022-10-13T03:25:45.476Z,10.90
2022-10-13T03:28:15.257Z,11.12
2022-10-13T03:30:45.502Z,11.90
2022-10-13T03:33:15.388Z,10.77
2022-10-13T03:35:45.159Z,11.20
2022-10-13T03:38:14.665Z,11.83
2022-10-13T03:40:44.449Z,11.03
2022-10-13T03:43:14.477Z,11.48
2022-10-13T03:45:44.325Z,11.80
2022-10-13T03:48:14.716Z,10.58
2022-10-13T03:50:44.484Z,12.07
2022-10-13T03:53:14.254Z,11.87
2022-10-13T03:55:45.926Z,11.90
2022-10-13T03:58:15.660Z,11.64
2022-10-13T04:00:47.834Z,12.43
2022-10-13T04:03:19.483Z,11.57
2022-10-13T04:05:49.419Z,11.93
2022-10-13T04:08:18.857Z,11.87
2022-10-13T04:10:48.606Z,11.70
2022-10-13T04:13:21.255Z,11.17
2022-10-13T04:15:53.030Z,11.20
2022-10-13T04:18:22.796Z,12.23
2022-10-13T04:20:52.528Z,11.80
2022-10-13T04:23:22.363Z,11.57
2022-10-13T04:25:52.273Z,10.50
2022-10-13T04:28:22.036Z,10.97
2022-10-13T04:30:51.858Z,11.07
2022-10-13T04:33:21.747Z,11.50
2022-10-13T04:35:51.850Z,10.50
2022-10-13T04:38:21.618Z,11.78
2022-10-13T04:40:51.536Z,11.63
2022-10-13T04:43:21.041Z,11.50
2022-10-13T04:45:51.094Z,11.78
2022-10-13T04:48:20.863Z,12.23
2022-10-13T04:50:53.684Z,11.43
2022-10-13T04:53:23.617Z,11.33
2022-10-13T04:55:53.368Z,11.60
2022-10-13T04:58:22.885Z,11.53
2022-10-13T05:00:54.867Z,12.80
2022-10-13T05:03:26.048Z,13.27
2022-10-13T05:05:55.771Z,13.00
2022-10-13T05:08:25.592Z,12.27
2022-10-13T05:11:00.579Z,11.43
2022-10-13T05:13:31.097Z,12.20
2022-10-13T05:16:00.967Z,12.50
2022-10-13T05:18:31.041Z,12.33
2022-10-13T05:21:12.816Z,12.55
2022-10-13T05:23:43.118Z,12.63
2022-10-13T05:26:18.077Z,13.40
2022-10-13T05:28:47.872Z,12.90
2022-10-13T05:31:20.752Z,12.00
2022-10-13T05:33:52.015Z,12.03
2022-10-13T05:36:27.392Z,12.33
2022-10-13T05:38:59.509Z,11.85
2022-10-13T05:41:30.708Z,12.03
2022-10-13T05:44:09.022Z,12.90
2022-10-13T05:46:40.462Z,11.47
2022-10-13T05:49:11.009Z,12.90
2022-10-13T05:51:43.793Z,11.63
2022-10-13T05:54:23.202Z,12.40
2022-10-13T05:57:04.878Z,12.28
2022-10-13T05:59:37.606Z,12.40
2022-10-13T06:02:11.380Z,11.83
2022-10-13T06:04:44.166Z,12.57
2022-10-13T06:07:14.778Z,11.97
2022-10-13T06:09:44.618Z,11.30
2022-10-13T06:12:14.369Z,12.13
2022-10-13T06:14:44.130Z,13.13
2022-10-13T06:17:14.095Z,11.73
2022-10-13T06:19:45.571Z,11.93
2022-10-13T06:22:15.593Z,11.75
2022-10-13T06:24:46.792Z,11.70
2022-10-13T06:27:16.269Z,13.70
2022-10-13T06:29:46.384Z,12.40
2022-10-13T06:32:16.138Z,12.23
2022-10-13T06:34:45.901Z,12.57
2022-10-13T06:37:15.488Z,12.30
2022-10-13T06:39:45.236Z,12.50
2022-10-13T06:42:15.007Z,12.37
2022-10-13T06:44:44.774Z,12.60
2022-10-13T06:47:14.600Z,12.07
2022-10-13T06:49:44.657Z,12.63
2022-10-13T06:52:14.986Z,12.20
2022-10-13T06:54:44.712Z,12.33
2022-10-13T06:57:14.833Z,11.93
2022-10-13T06:59:44.673Z,12.27
2022-10-13T07:02:14.583Z,12.03
2022-10-13T07:04:44.475Z,12.80
2022-10-13T07:07:14.833Z,12.73
2022-10-13T07:09:44.579Z,13.57
2022-10-13T07:12:15.964Z,13.20
2022-10-13T07:14:45.756Z,13.47
2022-10-13T07:17:15.469Z,13.00
2022-10-13T07:19:46.853Z,13.20
2022-10-13T07:22:16.681Z,13.32
2022-10-13T07:24:46.416Z,13.90
2022-10-13T07:27:15.911Z,13.20
2022-10-13T07:29:45.658Z,13.80
2022-10-13T07:32:15.610Z,13.03
2022-10-13T07:34:45.190Z,13.90
2022-10-13T07:37:14.932Z,12.87
2022-10-13T07:39:44.702Z,13.30
2022-10-13T07:42:14.259Z,12.70
2022-10-13T07:44:43.704Z,13.98
2022-10-13T07:47:13.457Z,13.17
2022-10-13T07:49:44.120Z,13.55
2022-10-13T07:52:13.886Z,12.95
2022-10-13T07:54:43.660Z,14.00
2022-10-13T07:57:13.114Z,13.85
2022-10-13T07:59:42.869Z,13.20
2022-10-13T08:02:14.665Z,13.40
2022-10-13T08:04:44.196Z,13.45
2022-10-13T08:07:13.943Z,14.23
2022-10-13T08:09:43.952Z,13.37
2022-10-13T08:12:13.745Z,13.40
2022-10-13T08:14:43.908Z,13.30
2022-10-13T08:17:14.906Z,13.15
2022-10-13T08:19:44.666Z,14.30
2022-10-13T08:22:14.447Z,14.57
2022-10-13T08:24:44.192Z,16.07
2022-10-13T08:27:17.358Z,14.07
2022-10-13T08:29:47.385Z,14.27
2022-10-13T08:32:19.759Z,13.62
2022-10-13T08:34:50.242Z,13.83
2022-10-13T08:37:21.818Z,14.10
2022-10-13T08:39:51.600Z,13.27
2022-10-13T08:42:22.805Z,13.40
2022-10-13T08:47:41.692Z,14.80
2022-10-13T08:50:27.045Z,13.63
2022-10-13T08:53:05.757Z,12.60
2022-10-13T08:55:44.761Z,14.53
2022-10-13T08:58:17.678Z,13.50
2022-10-13T09:00:47.480Z,13.20
2022-10-13T09:03:26.089Z,13.25
2022-10-13T09:06:19.602Z,12.93
2022-10-13T09:09:09.306Z,13.87
2022-10-13T09:11:44.584Z,13.30
2022-10-13T09:14:34.922Z,13.35
2022-10-13T09:17:23.480Z,14.10
2022-10-13T09:20:07.853Z,12.97
2022-10-13T09:22:41.189Z,13.07
2022-10-13T09:25:20.459Z,13.00
2022-10-13T09:27:57.647Z,13.03
2022-10-13T09:30:35.748Z,12.50
2022-10-13T09:33:14.570Z,11.73
2022-10-13T09:36:06.844Z,12.53
2022-10-13T09:38:36.681Z,13.07
2022-10-13T09:41:15.342Z,11.80
2022-10-13T09:43:51.068Z,12.40
2022-10-13T09:46:52.368Z,11.87
2022-10-13T09:49:38.800Z,12.10
2022-10-13T09:52:15.001Z,10.70
2022-10-13T09:54:51.017Z,12.57
2022-10-13T09:57:35.847Z,11.48
2022-10-13T10:00:14.912Z,10.87
2022-10-13T10:02:47.681Z,11.07
2022-10-13T10:05:25.996Z,11.83
2022-10-13T10:08:03.437Z,11.10
2022-10-13T10:10:41.067Z,11.07
2022-10-13T10:13:13.259Z,11.10
2022-10-13T10:15:54.560Z,11.70
2022-10-13T10:18:32.936Z,10.75
2022-10-13T10:21:11.649Z,10.95
2022-10-13T10:23:50.393Z,10.87
2022-10-13T10:26:32.444Z,11.97
2022-10-13T10:29:19.208Z,12.23
2022-10-13T10:31:58.257Z,10.90
2022-10-13T10:34:33.851Z,10.90
2022-10-13T10:37:09.009Z,11.07
2022-10-13T10:39:44.484Z,11.23
2022-10-13T10:42:42.367Z,11.97
2022-10-13T10:45:17.445Z,12.50
2022-10-13T10:47:52.270Z,12.70
2022-10-13T10:50:24.095Z,12.77
2022-10-13T10:53:29.617Z,13.10
2022-10-13T10:56:06.277Z,13.20
2022-10-13T10:58:44.102Z,13.83
2022-10-13T11:01:16.944Z,14.17
2022-10-13T11:04:04.327Z,15.23
2022-10-13T11:06:38.421Z,14.73
2022-10-13T11:09:10.052Z,14.73
2022-10-13T11:11:42.419Z,14.50
2022-10-13T11:14:27.693Z,16.05
2022-10-13T11:17:09.412Z,15.43
2022-10-13T11:19:40.694Z,16.87
2022-10-13T11:22:16.980Z,15.20
2022-10-13T11:24:49.241Z,16.27
2022-10-13T11:27:30.887Z,16.13
2022-10-13T11:30:02.541Z,15.83
2022-10-13T11:32:37.272Z,18.07
2022-10-13T11:35:11.262Z,16.70
2022-10-13T11:38:00.878Z,16.67
2022-10-13T11:40:46.029Z,17.00
2022-10-13T11:43:21.752Z,16.93
2022-10-13T11:46:00.047Z,15.17
2022-10-13T11:48:35.948Z,17.23
2022-10-13T11:51:18.936Z,16.80
2022-10-13T11:53:57.332Z,16.33
2022-10-13T11:56:51.394Z,16.95
2022-10-13T11:59:30.938Z,16.97
2022-10-13T12:02:09.418Z,16.03
2022-10-13T12:04:46.293Z,16.80
2022-10-13T12:07:15.991Z,15.32
2022-10-13T12:09:57.003Z,16.13
2022-10-13T12:12:28.249Z,16.00
2022-10-13T12:15:01.131Z,16.30
2022-10-13T12:17:32.891Z,16.13
2022-10-13T12:20:05.348Z,14.77
2022-10-13T12:22:40.037Z,16.60
2022-10-13T12:25:08.928Z,15.07
2022-10-13T12:27:44.661Z,15.50
2022-10-13T12:30:26.753Z,14.86
2022-10-13T12:32:59.742Z,14.40
2022-10-13T12:35:32.531Z,14.13
2022-10-13T12:38:05.139Z,13.78
2022-10-13T12:40:36.408Z,14.10
2022-10-13T12:43:06.482Z,14.40
2022-10-13T12:45:36.949Z,13.90
2022-10-13T12:48:09.899Z,12.53
2022-10-13T12:50:39.990Z,13.23
2022-10-13T12:53:15.482Z,13.90
2022-10-13T12:55:55.349Z,14.00
2022-10-13T12:58:30.974Z,13.80
2022-10-13T13:01:06.418Z,13.40
2022-10-13T13:03:38.353Z,14.33
2022-10-13T13:06:18.251Z,13.75
2022-10-13T13:08:48.253Z,12.97
2022-10-13T13:11:23.352Z,13.00
2022-10-13T13:13:57.505Z,12.95
2022-10-13T13:16:27.046Z,12.93
2022-10-13T13:18:57.037Z,12.13
2022-10-13T13:21:26.495Z,13.20
2022-10-13T13:23:56.280Z,13.20
2022-10-13T13:26:25.953Z,12.60
2022-10-13T13:28:57.247Z,12.43
2022-10-13T13:31:27.666Z,13.70
2022-10-13T13:33:57.731Z,13.20
2022-10-13T13:36:28.094Z,13.97
2022-10-13T13:38:57.857Z,13.17
2022-10-13T13:41:29.325Z,13.50
2022-10-13T13:43:59.267Z,13.90
2022-10-13T13:46:29.263Z,13.20
2022-10-13T13:48:59.560Z,13.83
2022-10-13T13:51:29.452Z,14.77
2022-10-13T13:53:59.227Z,15.03
2022-10-13T13:56:29.070Z,13.90
2022-10-13T13:58:58.826Z,13.53
2022-10-13T14:01:30.351Z,13.73
2022-10-13T14:04:00.122Z,13.67
2022-10-13T14:06:29.963Z,14.00
2022-10-13T14:08:59.719Z,14.23
2022-10-13T14:11:29.485Z,13.63
2022-10-13T14:14:01.551Z,15.57
2022-10-13T14:16:31.348Z,15.40
2022-10-13T14:19:01.474Z,15.50
2022-10-13T14:21:31.245Z,14.77
2022-10-13T14:24:00.998Z,17.73
2022-10-13T14:26:31.022Z,16.40
2022-10-13T14:29:01.165Z,16.10
2022-10-13T14:31:31.151Z,16.63
2022-10-13T14:34:03.577Z,16.87
2022-10-13T14:36:34.971Z,16.53
2022-10-13T14:39:05.405Z,16.30
2022-10-13T14:41:35.496Z,15.08
2022-10-13T14:44:06.828Z,16.00
2022-10-13T14:46:36.323Z,16.90
2022-10-13T14:49:06.066Z,18.20
2022-10-13T14:51:36.481Z,17.60
2022-10-13T14:54:08.253Z,16.85
2022-10-13T14:56:38.117Z,17.20
2022-10-13T14:59:08.471Z,17.60
2022-10-13T15:01:42.412Z,18.23
2022-10-13T15:04:12.239Z,19.03
2022-10-13T15:06:42.458Z,17.93
2022-10-13T15:09:12.675Z,17.53
2022-10-13T15:11:42.577Z,18.30
2022-10-13T15:14:12.050Z,17.00
2022-10-13T15:16:41.809Z,17.73
2022-10-13T15:19:11.549Z,19.20
2022-10-13T15:21:41.632Z,17.23
2022-10-13T15:24:12.463Z,18.95
2022-10-13T15:26:43.911Z,18.90
2022-10-13T15:29:13.667Z,18.93
2022-10-13T15:31:43.405Z,17.50
2022-10-13T15:34:13.188Z,18.20
2022-10-13T15:36:42.931Z,20.13
2022-10-13T15:39:12.711Z,17.67
2022-10-13T15:41:42.483Z,18.27
2022-10-13T15:44:12.869Z,17.83
2022-10-13T15:47:05.433Z,17.37
2022-10-13T15:49:14.132Z,19.43
2022-10-13T15:51:44.193Z,17.52
2022-10-13T15:54:13.959Z,18.30
2022-10-13T15:56:44.207Z,17.60
2022-10-13T15:59:14.016Z,17.83
2022-10-13T16:01:43.801Z,19.73
2022-10-13T16:04:13.691Z,18.62
2022-10-13T16:06:43.744Z,17.75
2022-10-13T16:09:13.498Z,18.43
2022-10-13T16:11:43.545Z,17.87
2022-10-13T16:14:13.489Z,18.47
2022-10-13T16:16:43.242Z,20.50
2022-10-13T16:19:13.035Z,18.10
2022-10-13T16:21:43.053Z,20.73
2022-10-13T16:24:12.506Z,19.32
2022-10-13T16:26:42.255Z,19.50
2022-10-13T16:29:12.161Z,18.87
2022-10-13T16:31:41.972Z,18.97
2022-10-13T16:34:12.569Z,20.30
2022-10-13T16:36:42.308Z,20.40
2022-10-13T16:39:12.357Z,20.47
2022-10-13T16:41:42.486Z,21.23
2022-10-13T16:44:11.925Z,19.53
2022-10-13T16:46:42.934Z,19.43
2022-10-13T16:49:13.333Z,20.33
2022-10-13T16:51:43.103Z,19.80
2022-10-13T16:54:12.859Z,20.17
2022-10-13T16:56:42.594Z,20.73
2022-10-13T16:59:12.182Z,21.20
2022-10-13T17:01:42.219Z,20.92
2022-10-13T17:04:11.869Z,21.40
2022-10-13T17:06:41.792Z,21.77
2022-10-13T17:09:11.804Z,21.93
2022-10-13T17:11:43.389Z,21.87
2022-10-13T17:14:13.260Z,21.33
2022-10-13T17:16:44.065Z,22.43
2022-10-13T17:19:13.806Z,21.03
2022-10-13T17:21:45.461Z,22.50
2022-10-13T17:24:16.913Z,22.80
2022-10-13T17:26:46.729Z,20.97
2022-10-13T17:29:16.839Z,23.10
2022-10-13T17:31:46.605Z,21.37
2022-10-13T17:34:16.410Z,23.00
2022-10-13T17:36:46.208Z,23.87
2022-10-13T17:39:17.502Z,22.67
2022-10-13T17:41:47.263Z,22.67
2022-10-13T17:44:18.680Z,22.13
2022-10-13T17:46:50.078Z,22.02
2022-10-13T17:49:19.888Z,22.37
2022-10-13T17:51:52.740Z,22.33
2022-10-13T17:54:23.014Z,22.10
2022-10-13T17:56:54.264Z,22.73
2022-10-13T17:59:24.349Z,23.07
2022-10-13T18:01:54.307Z,23.30
2022-10-13T18:04:24.345Z,24.00
2022-10-13T18:06:54.478Z,24.73
2022-10-13T18:09:24.699Z,24.40
2022-10-13T18:11:55.239Z,25.07
2022-10-13T18:14:25.413Z,24.80
2022-10-13T18:16:55.410Z,24.57
2022-10-13T18:19:25.146Z,25.67
2022-10-13T18:21:55.249Z,25.20
2022-10-13T18:24:25.071Z,25.53
2022-10-13T18:26:55.137Z,26.07
2022-10-13T18:29:25.903Z,26.13
2022-10-13T18:31:59.163Z,27.23
2022-10-13T18:34:29.008Z,25.67
2022-10-13T18:36:58.775Z,26.10
2022-10-13T18:39:30.032Z,26.33
2022-10-13T18:41:59.482Z,26.45
2022-10-13T18:44:30.942Z,26.77
2022-10-13T18:47:00.704Z,26.90
2022-10-13T18:49:33.164Z,26.43
2022-10-13T18:52:03.252Z,26.87
2022-10-13T18:54:33.130Z,26.63
2022-10-13T18:57:02.882Z,27.97
2022-10-13T18:59:34.082Z,28.03
2022-10-13T19:02:04.888Z,27.23
2022-10-13T19:04:36.589Z,27.20
2022-10-13T19:07:06.407Z,27.60
2022-10-13T19:09:36.245Z,27.33
2022-10-13T19:12:08.252Z,27.45
2022-10-13T19:14:38.082Z,27.77
2022-10-13T19:17:07.872Z,29.30
2022-10-13T19:19:38.921Z,28.53
2022-10-13T19:22:11.183Z,28.52
2022-10-13T19:24:40.955Z,28.03
2022-10-13T19:27:10.688Z,28.27
2022-10-13T19:29:41.518Z,27.97
2022-10-13T19:32:11.589Z,29.30
2022-10-13T19:34:41.635Z,29.80
2022-10-13T19:37:13.087Z,27.17
2022-10-13T19:39:42.836Z,28.40
2022-10-13T19:42:12.633Z,28.67
2022-10-13T19:44:42.378Z,28.47
2022-10-13T19:47:12.121Z,27.03
2022-10-13T19:49:42.046Z,29.03
2022-10-13T19:52:11.742Z,27.47
2022-10-13T19:54:42.159Z,26.57
2022-10-13T19:57:11.913Z,26.80
2022-10-13T19:59:46.707Z,25.60
2022-10-13T20:02:13.041Z,24.72
2022-10-13T20:04:42.803Z,22.20
2022-10-13T20:07:12.558Z,20.95
2022-10-13T20:09:42.383Z,20.13
2022-10-13T20:12:12.094Z,20.53
2022-10-13T20:14:42.497Z,22.27
2022-10-13T20:17:12.232Z,23.17
2022-10-13T20:19:43.271Z,24.43
2022-10-13T20:22:13.309Z,24.70
2022-10-13T20:24:43.073Z,23.80
2022-10-13T20:27:12.834Z,23.43
2022-10-13T20:29:42.749Z,24.43
2022-10-13T20:32:12.308Z,24.37
2022-10-13T20:34:42.379Z,23.47
2022-10-13T20:37:12.300Z,23.33
2022-10-13T20:39:42.052Z,23.33
2022-10-13T20:42:12.271Z,24.85
2022-10-13T20:44:42.039Z,24.03
2022-10-13T20:47:11.784Z,25.27
2022-10-13T20:49:41.296Z,25.65
2022-10-13T20:52:11.518Z,26.30
2022-10-13T20:54:41.567Z,25.62
2022-10-13T20:57:11.614Z,26.95
2022-10-13T20:59:41.657Z,27.27
2022-10-13T21:02:13.898Z,27.37
2022-10-13T21:04:43.613Z,26.80
2022-10-13T21:07:13.083Z,28.55
2022-10-13T21:09:42.833Z,27.17
2022-10-13T21:12:12.335Z,27.52
2022-10-13T21:14:42.083Z,28.53
2022-10-13T21:17:11.828Z,28.27
2022-10-13T21:19:41.268Z,29.67
2022-10-13T21:22:11.879Z,28.06
2022-10-13T21:24:41.610Z,28.57
2022-10-13T21:27:11.121Z,29.05
2022-10-13T21:29:40.632Z,28.90
2022-10-13T21:32:11.480Z,27.20
2022-10-13T21:34:41.975Z,28.33
2022-10-13T21:37:11.722Z,27.50
2022-10-13T21:39:41.552Z,27.30
2022-10-13T21:42:12.029Z,27.78
2022-10-13T21:44:41.763Z,27.63
2022-10-13T21:47:11.516Z,27.40
2022-10-13T21:49:41.562Z,26.95
2022-10-13T21:52:11.931Z,25.98
2022-10-13T21:54:42.005Z,27.33
2022-10-13T21:57:11.764Z,27.83
2022-10-13T21:59:41.568Z,26.47
2022-10-13T22:02:11.911Z,27.13
2022-10-13T22:04:41.658Z,27.20
2022-10-13T22:07:11.403Z,26.47
2022-10-13T22:09:41.216Z,25.83
2022-10-13T22:12:11.913Z,27.30
2022-10-13T22:14:41.736Z,26.03
2022-10-13T22:17:11.551Z,25.50
2022-10-13T22:19:41.735Z,27.77
2022-10-13T22:22:11.522Z,24.45
2022-10-13T22:24:41.360Z,26.30
2022-10-13T22:27:11.100Z,24.57
2022-10-13T22:29:40.841Z,25.73
2022-10-13T22:32:11.370Z,23.92
2022-10-13T22:34:41.186Z,24.60
2022-10-13T22:37:10.932Z,25.47
2022-10-13T22:39:40.679Z,26.27
2022-10-13T22:42:13.198Z,24.17
2022-10-13T22:44:42.962Z,24.60
2022-10-13T22:47:12.718Z,23.37
2022-10-13T22:49:42.759Z,24.82
2022-10-13T22:52:13.068Z,24.40
2022-10-13T22:54:42.805Z,23.40
2022-10-13T22:57:12.579Z,23.67
2022-10-13T22:59:42.622Z,24.10
2022-10-13T23:02:12.374Z,22.42
2022-10-13T23:04:42.763Z,22.50
2022-10-13T23:07:12.584Z,21.93
2022-10-13T23:09:42.467Z,20.97
2022-10-13T23:12:12.227Z,20.92
2022-10-13T23:14:41.988Z,21.87
2022-10-13T23:17:11.749Z,20.60
2022-10-13T23:19:41.480Z,20.47
2022-10-13T23:22:11.891Z,21.30
2022-10-13T23:24:41.642Z,20.13
2022-10-13T23:27:11.476Z,20.97
2022-10-13T23:29:41.230Z,20.37
2022-10-13T23:32:12.846Z,20.72
2022-10-13T23:34:44.761Z,20.10
2022-10-13T23:37:15.673Z,20.70
2022-10-13T23:39:45.762Z,20.02
2022-10-13T23:42:15.433Z,20.15
2022-10-13T23:44:45.206Z,21.57
2022-10-13T23:47:14.956Z,19.80
2022-10-13T23:49:44.712Z,20.27
2022-10-13T23:52:14.525Z,21.37
2022-10-13T23:54:44.331Z,21.80
2022-10-13T23:57:15.605Z,21.23
2022-10-13T23:59:45.366Z,20.60
